Angel Fire, NM

4:35 AM MDT on May 26, 2018 (GMT -0600)
Angel Fire

Weather History for KAXX - October, 2012

Change the Weather History Date:

Friday, October 5, 2012

  Actual Average (WUND) Record (WUND)
Temperature  
Mean Temperature 54 °F -  
Max Temperature 65 °F - - (-1)
Min Temperature 42 °F - - (-1)
Degree Days  
Heating Degree Days 11    
Growing Degree Days 4 (Base 50)    
Moisture  
Dew Point 17 °F    
Average Humidity 26    
Maximum Humidity 72    
Minimum Humidity 9    
Precipitation  
Precipitation 0.00 in - - ()
Sea Level Pressure  
Sea Level Pressure 30.22 in    
Wind  
Wind Speed 16 mph (WSW)    
Max Wind Speed 33 mph    
Max Gust Speed 46 mph    
Visibility 10 miles    
Events      
Averages and records for this station are not official NWS values.
T = Trace of Precipitation, MM = Missing Value Source: NWS Daily Summary

Daily Weather History Graph

Daily Weather History Graph

Search for Another Location

Airport or City:

Astronomy

Oct. 05, 2012 Rise Set
Actual Time 7:00 AM MDT 6:38 PM MDT
Civil Twilight 6:34 AM MDT 7:03 PM MDT
Nautical Twilight 6:04 AM MDT 7:33 PM MDT
Astronomical Twilight 5:34 AM MDT 8:03 PM MDT
Moon 10:11 PM MDT (10/5) 12:02 PM MDT (10/5)
Length of Visible Light 12h 29m
Length of Day
11h 37m
Waning Gibbous, 73% of the Moon is Illuminated
Oct 5
Waning Gibbous
Oct 8
Last Quarter
Oct 15
New
Oct 21
First Quarter
Oct 29
Full

Hourly Weather History & Observations

Time (MDT) Temp. Windchill Dew Point Humidity Pressure Visibility Wind Dir Wind Speed Gust Speed Precip Events Conditions
12:15 AM 43.7 °F - 23.2 °F 44% 30.27 in 10.0 mi Calm Calm - N/A   Clear
12:35 AM 53.6 °F - 15.4 °F 22% 30.27 in 10.0 mi SW 11.5 mph - N/A   Clear
12:55 AM 53.8 °F - 15.3 °F 22% 30.27 in 10.0 mi SSW 10.4 mph - N/A   Clear
1:15 AM 54.1 °F - 14.9 °F 21% 30.26 in 10.0 mi SSW 11.5 mph - N/A   Clear
1:35 AM 55.6 °F - 14.0 °F 19% 30.26 in 10.0 mi SW 17.3 mph 20.7 mph N/A   Clear
1:55 AM 56.3 °F - 14.0 °F 19% 30.26 in 10.0 mi SSW 13.8 mph - N/A   Clear
2:15 AM 55.9 °F - 14.9 °F 20% 30.26 in 10.0 mi SW 17.3 mph 26.5 mph N/A   Clear
2:35 AM 56.1 °F - 15.4 °F 20% 30.26 in 10.0 mi WSW 20.7 mph 28.8 mph N/A   Clear
2:55 AM 55.8 °F - 15.8 °F 21% 30.25 in 10.0 mi WSW 17.3 mph 27.6 mph N/A   Clear
3:15 AM 55.0 °F - 16.5 °F 22% 30.24 in 10.0 mi WSW 18.4 mph 27.6 mph N/A   Clear
3:35 AM 54.5 °F - 16.9 °F 23% 30.24 in 10.0 mi WSW 20.7 mph 27.6 mph N/A   Clear
3:55 AM 53.6 °F - 17.4 °F 24% 30.24 in 10.0 mi WSW 18.4 mph 24.2 mph N/A   Clear
4:15 AM 53.6 °F - 17.4 °F 24% 30.24 in 10.0 mi WSW 16.1 mph 26.5 mph N/A   Clear
4:35 AM 53.2 °F - 17.6 °F 25% 30.24 in 10.0 mi WSW 17.3 mph 23.0 mph N/A   Clear
4:55 AM 52.7 °F - 17.6 °F 25% 30.24 in 10.0 mi WSW 17.3 mph 21.9 mph N/A   Clear
5:15 AM 52.9 °F - 17.6 °F 25% 30.23 in 10.0 mi WSW 17.3 mph 29.9 mph N/A   Clear
5:35 AM 51.6 °F - 18.9 °F 28% 30.24 in 10.0 mi WSW 16.1 mph 24.2 mph N/A   Clear
5:55 AM 51.4 °F - 18.5 °F 27% 30.24 in 10.0 mi WSW 16.1 mph - N/A   Clear
6:15 AM 51.8 °F - 17.6 °F 26% 30.24 in 10.0 mi WSW 18.4 mph 25.3 mph N/A   Clear
6:35 AM 51.8 °F - 17.2 °F 26% 30.24 in 10.0 mi WSW 17.3 mph 21.9 mph N/A   Clear
6:55 AM 51.6 °F - 17.4 °F 26% 30.24 in 10.0 mi WSW 18.4 mph 25.3 mph N/A   Clear
7:15 AM 51.1 °F - 18.1 °F 27% 30.25 in 10.0 mi WSW 16.1 mph 24.2 mph N/A   Clear
7:35 AM 51.4 °F - 18.5 °F 27% 30.24 in 10.0 mi WSW 19.6 mph 25.3 mph N/A   Clear
7:55 AM 52.5 °F - 18.1 °F 26% 30.25 in 10.0 mi WSW 18.4 mph 24.2 mph N/A   Clear
8:55 AM 55.4 °F - 18.1 °F 23% 30.27 in 10.0 mi West 16.1 mph 25.3 mph N/A   Clear
9:15 AM 56.3 °F - 18.5 °F 23% 30.27 in 10.0 mi West 15.0 mph 23.0 mph N/A   Clear
9:35 AM 56.3 °F - 18.1 °F 23% 30.27 in 10.0 mi West 21.9 mph 31.1 mph N/A   Clear
9:55 AM 57.2 °F - 18.5 °F 22% 30.26 in 10.0 mi West 20.7 mph 27.6 mph N/A   Clear
10:35 AM 58.1 °F - 18.5 °F 21% 30.26 in 10.0 mi West 16.1 mph 27.6 mph N/A   Clear
10:55 AM 58.6 °F - 18.0 °F 21% 30.25 in 10.0 mi West 19.6 mph 27.6 mph N/A   Clear
11:15 AM 59.5 °F - 18.1 °F 20% 30.25 in 10.0 mi West 16.1 mph 28.8 mph N/A   Clear
11:35 AM 60.1 °F - 17.6 °F 19% 30.24 in 10.0 mi West 19.6 mph 27.6 mph N/A   Clear
11:55 AM 60.8 °F - 17.2 °F 18% 30.24 in 10.0 mi WSW 26.5 mph 33.4 mph N/A   Clear
12:35 PM 61.9 °F - 15.4 °F 16% 30.21 in 10.0 mi WSW 27.6 mph 40.3 mph N/A   Clear
12:55 PM 63.0 °F - 13.1 °F 14% 30.20 in 10.0 mi West 31.1 mph 43.7 mph N/A   Clear
1:15 PM 63.1 °F - 14.2 °F 15% 30.19 in 10.0 mi West 24.2 mph 42.6 mph N/A   Clear
1:35 PM 64.4 °F - 14.2 °F 14% 30.18 in 10.0 mi WSW 32.2 mph 40.3 mph N/A   Clear
1:55 PM 64.8 °F - 13.3 °F 14% 30.17 in 10.0 mi West 32.2 mph 43.7 mph N/A   Clear
2:15 PM 63.3 °F - 11.5 °F 13% 30.16 in 10.0 mi West 31.1 mph 42.6 mph N/A   Clear
2:35 PM 65.3 °F - 10.4 °F 12% 30.15 in 10.0 mi West 33.4 mph 42.6 mph N/A   Clear
2:55 PM 64.8 °F - 7.2 °F 10% 30.16 in 10.0 mi West 27.6 mph 46.0 mph N/A   Clear
3:15 PM 63.3 °F - 8.6 °F 12% 30.15 in 10.0 mi WSW 27.6 mph 41.4 mph N/A   Clear
3:35 PM 64.0 °F - 10.2 °F 12% 30.16 in 10.0 mi West 21.9 mph 39.1 mph N/A   Clear
3:55 PM 63.0 °F - 8.1 °F 11% 30.17 in 10.0 mi WSW 23.0 mph 32.2 mph N/A   Clear
4:15 PM 63.7 °F - 6.6 °F 11% 30.17 in 10.0 mi WSW 20.7 mph 29.9 mph N/A   Clear
4:35 PM 64.8 °F - 5.4 °F 10% 30.17 in 10.0 mi SW 18.4 mph 26.5 mph N/A   Clear
4:55 PM 63.5 °F - 6.6 °F 11% 30.17 in 10.0 mi West 15.0 mph 28.8 mph N/A   Clear
5:15 PM 64.2 °F - 6.1 °F 10% 30.18 in 10.0 mi WSW 20.7 mph 28.8 mph N/A   Clear
5:35 PM 61.7 °F - 4.6 °F 10% 30.18 in 10.0 mi SW 13.8 mph 26.5 mph N/A   Clear
5:55 PM 62.1 °F - 2.3 °F 9% 30.19 in 10.0 mi SW 12.7 mph 24.2 mph N/A   Clear
6:15 PM 61.3 °F - 3.2 °F 10% 30.19 in 10.0 mi WSW 17.3 mph 25.3 mph N/A   Clear
6:35 PM 59.9 °F - 5.2 °F 11% 30.20 in 10.0 mi WSW 16.1 mph 23.0 mph N/A   Clear
6:55 PM 59.2 °F - 5.4 °F 12% 30.20 in 10.0 mi WSW 15.0 mph 19.6 mph N/A   Clear
7:15 PM 58.1 °F - 7.2 °F 13% 30.20 in 10.0 mi SW 8.1 mph 16.1 mph N/A   Clear
7:35 PM 58.5 °F - 5.7 °F 12% 30.20 in 10.0 mi WSW 10.4 mph 17.3 mph N/A   Clear
7:55 PM 57.4 °F - 6.3 °F 13% 30.21 in 10.0 mi WSW 5.8 mph 19.6 mph N/A   Clear
8:15 PM 54.3 °F - 20.7 °F 27% 30.22 in 10.0 mi SE 4.6 mph - N/A   Clear
8:35 PM 52.3 °F - 28.6 °F 40% 30.22 in 10.0 mi South 17.3 mph 21.9 mph N/A   Clear
8:55 PM 50.5 °F - 31.8 °F 49% 30.22 in 10.0 mi South 17.3 mph - N/A   Clear
9:35 PM 47.3 °F - 34.2 °F 60% 30.23 in 10.0 mi South 17.3 mph 21.9 mph N/A   Clear
9:55 PM 45.9 °F 38.8 °F 34.3 °F 64% 30.23 in 10.0 mi SSW 17.3 mph 26.5 mph N/A   Clear
10:15 PM 45.7 °F 38.0 °F 34.3 °F 65% 30.22 in 10.0 mi SSW 19.6 mph 31.1 mph N/A   Clear
10:35 PM 44.6 °F 36.6 °F 34.7 °F 68% 30.22 in 10.0 mi South 19.6 mph 24.2 mph N/A   Clear
10:55 PM 43.9 °F 35.4 °F 34.5 °F 70% 30.21 in 10.0 mi South 20.7 mph 26.5 mph N/A   Clear
11:15 PM 43.7 °F 34.7 °F 34.5 °F 70% 30.21 in 10.0 mi South 23.0 mph 28.8 mph N/A   Clear
11:35 PM 43.0 °F 34.0 °F 34.3 °F 72% 30.20 in 10.0 mi South 21.9 mph - N/A   Clear
11:55 PM 42.8 °F 34.0 °F 34.2 °F 72% 30.20 in 10.0 mi SSW 20.7 mph 28.8 mph N/A   Clear